sensor_id;sensor_type;location;lat;lon;timestamp;P1;P2;P0
29062;PMS5003;71206;48.564;-123.458;2024-01-07T00:01:08;195;180;
29062;PMS5003;71206;48.564;-123.458;2024-01-07T00:03:36;246;231;
29062;PMS5003;71206;48.564;-123.458;2024-01-07T00:05:57;115;103;
29062;PMS5003;71206;48.564;-123.458;2024-01-07T00:08:22;173;164;
29062;PMS5003;71206;48.564;-123.458;2024-01-07T00:10:48;204;184;
29062;PMS5003;71206;48.564;-123.458;2024-01-07T00:13:14;134;127;
29062;PMS5003;71206;48.564;-123.458;2024-01-07T00:15:42;82;75;
29062;PMS5003;71206;48.564;-123.458;2024-01-07T00:18:05;37;36;
29062;PMS5003;71206;48.564;-123.458;2024-01-07T00:20:29;57;53;
29062;PMS5003;71206;48.564;-123.458;2024-01-07T00:22:59;29;29;
29062;PMS5003;71206;48.564;-123.458;2024-01-07T00:25:25;8;8;
29062;PMS5003;71206;48.564;-123.458;2024-01-07T00:27:45;9;9;
29062;PMS5003;71206;48.564;-123.458;2024-01-07T00:30:11;9;9;
29062;PMS5003;71206;48.564;-123.458;2024-01-07T00:32:36;8;7;
29062;PMS5003;71206;48.564;-123.458;2024-01-07T00:35:02;7;7;
29062;PMS5003;71206;48.564;-123.458;2024-01-07T00:37:27;8;8;
29062;PMS5003;71206;48.564;-123.458;2024-01-07T00:39:52;17;16;
29062;PMS5003;71206;48.564;-123.458;2024-01-07T00:42:17;13;13;
29062;PMS5003;71206;48.564;-123.458;2024-01-07T00:44:43;8;7;
29062;PMS5003;71206;48.564;-123.458;2024-01-07T00:47:09;3;3;
29062;PMS5003;71206;48.564;-123.458;2024-01-07T00:49:35;2;2;
29062;PMS5003;71206;48.564;-123.458;2024-01-07T00:51:59;2;2;
29062;PMS5003;71206;48.564;-123.458;2024-01-07T00:54:24;2;2;
29062;PMS5003;71206;48.564;-123.458;2024-01-07T00:56:53;3;3;
29062;PMS5003;71206;48.564;-123.458;2024-01-07T00:59:16;2;2;
29062;PMS5003;71206;48.564;-123.458;2024-01-07T01:01:41;1;1;
29062;PMS5003;71206;48.564;-123.458;2024-01-07T01:04:06;3;3;
29062;PMS5003;71206;48.564;-123.458;2024-01-07T01:06:32;2;2;
29062;PMS5003;71206;48.564;-123.458;2024-01-07T01:08:57;5;2;
29062;PMS5003;71206;48.564;-123.458;2024-01-07T01:11:23;4;4;
29062;PMS5003;71206;48.564;-123.458;2024-01-07T01:13:48;10;7;
29062;PMS5003;71206;48.564;-123.458;2024-01-07T01:16:13;11;8;
29062;PMS5003;71206;48.564;-123.458;2024-01-07T01:18:40;8;8;
29062;PMS5003;71206;48.564;-123.458;2024-01-07T01:21:04;12;8;
29062;PMS5003;71206;48.564;-123.458;2024-01-07T01:23:29;21;20;
29062;PMS5003;71206;48.564;-123.458;2024-01-07T01:25:55;25;20;
29062;PMS5003;71206;48.564;-123.458;2024-01-07T01:28:20;12;11;
29062;PMS5003;71206;48.564;-123.458;2024-01-07T01:30:47;16;15;
29062;PMS5003;71206;48.564;-123.458;2024-01-07T01:33:10;10;8;
29062;PMS5003;71206;48.564;-123.458;2024-01-07T01:35:35;14;12;
29062;PMS5003;71206;48.564;-123.458;2024-01-07T01:38:01;12;10;
29062;PMS5003;71206;48.564;-123.458;2024-01-07T01:40:26;11;11;
29062;PMS5003;71206;48.564;-123.458;2024-01-07T01:42:51;12;10;
29062;PMS5003;71206;48.564;-123.458;2024-01-07T01:45:16;15;13;
29062;PMS5003;71206;48.564;-123.458;2024-01-07T01:47:43;12;12;
29062;PMS5003;71206;48.564;-123.458;2024-01-07T01:50:07;12;11;
29062;PMS5003;71206;48.564;-123.458;2024-01-07T01:52:32;17;14;
29062;PMS5003;71206;48.564;-123.458;2024-01-07T01:54:58;13;12;
29062;PMS5003;71206;48.564;-123.458;2024-01-07T01:57:24;17;15;
29062;PMS5003;71206;48.564;-123.458;2024-01-07T01:59:48;21;20;
29062;PMS5003;71206;48.564;-123.458;2024-01-07T02:02:14;20;20;
29062;PMS5003;71206;48.564;-123.458;2024-01-07T02:04:44;26;25;
29062;PMS5003;71206;48.564;-123.458;2024-01-07T02:07:04;21;19;
29062;PMS5003;71206;48.564;-123.458;2024-01-07T02:09:29;19;16;
29062;PMS5003;71206;48.564;-123.458;2024-01-07T02:12:00;16;14;
29062;PMS5003;71206;48.564;-123.458;2024-01-07T02:14:21;14;14;
29062;PMS5003;71206;48.564;-123.458;2024-01-07T02:16:46;20;19;
29062;PMS5003;71206;48.564;-123.458;2024-01-07T02:19:11;21;17;
29062;PMS5003;71206;48.564;-123.458;2024-01-07T02:21:37;24;19;
29062;PMS5003;71206;48.564;-123.458;2024-01-07T02:24:03;29;26;
29062;PMS5003;71206;48.564;-123.458;2024-01-07T02:26:27;19;19;
29062;PMS5003;71206;48.564;-123.458;2024-01-07T02:28:54;24;22;
29062;PMS5003;71206;48.564;-123.458;2024-01-07T02:31:18;19;19;
29062;PMS5003;71206;48.564;-123.458;2024-01-07T02:33:43;18;16;
29062;PMS5003;71206;48.564;-123.458;2024-01-07T02:36:08;21;19;
29062;PMS5003;71206;48.564;-123.458;2024-01-07T02:38:34;25;18;
29062;PMS5003;71206;48.564;-123.458;2024-01-07T02:40:59;17;16;
29062;PMS5003;71206;48.564;-123.458;2024-01-07T02:43:24;19;17;
29062;PMS5003;71206;48.564;-123.458;2024-01-07T02:45:50;23;20;
29062;PMS5003;71206;48.564;-123.458;2024-01-07T02:48:16;27;23;
29062;PMS5003;71206;48.564;-123.458;2024-01-07T02:50:41;11;11;
29062;PMS5003;71206;48.564;-123.458;2024-01-07T02:53:06;18;16;
29062;PMS5003;71206;48.564;-123.458;2024-01-07T02:55:33;16;16;
29062;PMS5003;71206;48.564;-123.458;2024-01-07T02:57:57;18;15;
29062;PMS5003;71206;48.564;-123.458;2024-01-07T03:00:22;12;11;
29062;PMS5003;71206;48.564;-123.458;2024-01-07T03:02:48;11;10;
29062;PMS5003;71206;48.564;-123.458;2024-01-07T03:05:13;15;11;
29062;PMS5003;71206;48.564;-123.458;2024-01-07T03:07:39;16;12;
29062;PMS5003;71206;48.564;-123.458;2024-01-07T03:10:05;15;12;
29062;PMS5003;71206;48.564;-123.458;2024-01-07T03:12:29;11;11;
29062;PMS5003;71206;48.564;-123.458;2024-01-07T03:14:54;11;10;
29062;PMS5003;71206;48.564;-123.458;2024-01-07T03:17:20;15;14;
29062;PMS5003;71206;48.564;-123.458;2024-01-07T03:19:45;16;16;
29062;PMS5003;71206;48.564;-123.458;2024-01-07T03:22:11;24;24;
29062;PMS5003;71206;48.564;-123.458;2024-01-07T03:24:36;31;25;
29062;PMS5003;71206;48.564;-123.458;2024-01-07T03:27:01;23;20;
29062;PMS5003;71206;48.564;-123.458;2024-01-07T03:29:27;22;22;
29062;PMS5003;71206;48.564;-123.458;2024-01-07T03:31:53;24;20;
29062;PMS5003;71206;48.564;-123.458;2024-01-07T03:34:19;22;18;
29062;PMS5003;71206;48.564;-123.458;2024-01-07T03:36:42;26;22;
29062;PMS5003;71206;48.564;-123.458;2024-01-07T03:39:09;27;27;
29062;PMS5003;71206;48.564;-123.458;2024-01-07T03:41:34;31;31;
29062;PMS5003;71206;48.564;-123.458;2024-01-07T03:43:59;31;28;
29062;PMS5003;71206;48.564;-123.458;2024-01-07T03:46:26;37;35;
29062;PMS5003;71206;48.564;-123.458;2024-01-07T03:48:49;37;33;
29062;PMS5003;71206;48.564;-123.458;2024-01-07T03:51:15;36;27;
29062;PMS5003;71206;48.564;-123.458;2024-01-07T03:53:40;22;22;
29062;PMS5003;71206;48.564;-123.458;2024-01-07T03:56:06;35;29;
29062;PMS5003;71206;48.564;-123.458;2024-01-07T03:58:32;35;31;
29062;PMS5003;71206;48.564;-123.458;2024-01-07T04:00:57;54;48;
29062;PMS5003;71206;48.564;-123.458;2024-01-07T04:03:23;39;37;
29062;PMS5003;71206;48.564;-123.458;2024-01-07T04:05:48;36;36;
29062;PMS5003;71206;48.564;-123.458;2024-01-07T04:08:14;40;36;
29062;PMS5003;71206;48.564;-123.458;2024-01-07T04:10:41;35;31;
29062;PMS5003;71206;48.564;-123.458;2024-01-07T04:13:08;34;31;
29062;PMS5003;71206;48.564;-123.458;2024-01-07T04:15:30;54;44;
29062;PMS5003;71206;48.564;-123.458;2024-01-07T04:17:56;59;52;
29062;PMS5003;71206;48.564;-123.458;2024-01-07T04:20:21;34;32;
29062;PMS5003;71206;48.564;-123.458;2024-01-07T04:22:47;37;36;
29062;PMS5003;71206;48.564;-123.458;2024-01-07T04:25:12;39;38;
29062;PMS5003;71206;48.564;-123.458;2024-01-07T04:27:43;45;43;
29062;PMS5003;71206;48.564;-123.458;2024-01-07T04:30:04;19;18;
29062;PMS5003;71206;48.564;-123.458;2024-01-07T04:32:30;28;28;
29062;PMS5003;71206;48.564;-123.458;2024-01-07T04:34:56;30;26;
29062;PMS5003;71206;48.564;-123.458;2024-01-07T04:37:22;23;22;
29062;PMS5003;71206;48.564;-123.458;2024-01-07T04:39:45;22;22;
29062;PMS5003;71206;48.564;-123.458;2024-01-07T04:42:10;51;49;
29062;PMS5003;71206;48.564;-123.458;2024-01-07T04:44:37;26;24;
29062;PMS5003;71206;48.564;-123.458;2024-01-07T04:47:01;51;48;
29062;PMS5003;71206;48.564;-123.458;2024-01-07T04:49:26;31;28;
29062;PMS5003;71206;48.564;-123.458;2024-01-07T04:51:52;46;43;
29062;PMS5003;71206;48.564;-123.458;2024-01-07T04:54:17;53;49;
29062;PMS5003;71206;48.564;-123.458;2024-01-07T04:56:43;63;59;
29062;PMS5003;71206;48.564;-123.458;2024-01-07T04:59:09;43;40;
29062;PMS5003;71206;48.564;-123.458;2024-01-07T05:01:34;52;49;
29062;PMS5003;71206;48.564;-123.458;2024-01-07T05:03:59;61;58;
29062;PMS5003;71206;48.564;-123.458;2024-01-07T05:06:25;56;51;
29062;PMS5003;71206;48.564;-123.458;2024-01-07T05:08:51;56;49;
29062;PMS5003;71206;48.564;-123.458;2024-01-07T05:11:16;47;41;
29062;PMS5003;71206;48.564;-123.458;2024-01-07T05:13:41;47;43;
29062;PMS5003;71206;48.564;-123.458;2024-01-07T05:16:07;49;48;
29062;PMS5003;71206;48.564;-123.458;2024-01-07T05:18:34;38;34;
29062;PMS5003;71206;48.564;-123.458;2024-01-07T05:20:58;25;25;
29062;PMS5003;71206;48.564;-123.458;2024-01-07T05:23:24;58;55;
29062;PMS5003;71206;48.564;-123.458;2024-01-07T05:25:49;26;25;
29062;PMS5003;71206;48.564;-123.458;2024-01-07T05:28:14;69;63;
29062;PMS5003;71206;48.564;-123.458;2024-01-07T05:30:39;59;48;
29062;PMS5003;71206;48.564;-123.458;2024-01-07T05:33:05;50;40;
29062;PMS5003;71206;48.564;-123.458;2024-01-07T05:35:31;64;56;
29062;PMS5003;71206;48.564;-123.458;2024-01-07T05:37:58;63;59;
29062;PMS5003;71206;48.564;-123.458;2024-01-07T05:40:23;43;42;
29062;PMS5003;71206;48.564;-123.458;2024-01-07T05:42:49;42;37;
29062;PMS5003;71206;48.564;-123.458;2024-01-07T05:45:14;39;35;
29062;PMS5003;71206;48.564;-123.458;2024-01-07T05:47:39;34;33;
29062;PMS5003;71206;48.564;-123.458;2024-01-07T05:50:05;39;34;
29062;PMS5003;71206;48.564;-123.458;2024-01-07T05:52:30;46;41;
29062;PMS5003;71206;48.564;-123.458;2024-01-07T05:54:55;51;45;
29062;PMS5003;71206;48.564;-123.458;2024-01-07T05:57:20;59;57;
29062;PMS5003;71206;48.564;-123.458;2024-01-07T05:59:45;66;54;
29062;PMS5003;71206;48.564;-123.458;2024-01-07T06:02:11;43;35;
29062;PMS5003;71206;48.564;-123.458;2024-01-07T06:04:38;50;42;
29062;PMS5003;71206;48.564;-123.458;2024-01-07T06:07:02;35;27;
29062;PMS5003;71206;48.564;-123.458;2024-01-07T06:09:26;38;29;
29062;PMS5003;71206;48.564;-123.458;2024-01-07T06:11:51;29;28;
29062;PMS5003;71206;48.564;-123.458;2024-01-07T06:14:17;28;26;
29062;PMS5003;71206;48.564;-123.458;2024-01-07T06:16:47;30;29;
29062;PMS5003;71206;48.564;-123.458;2024-01-07T06:19:07;29;29;
29062;PMS5003;71206;48.564;-123.458;2024-01-07T06:21:35;22;22;
29062;PMS5003;71206;48.564;-123.458;2024-01-07T06:23:58;22;18;
29062;PMS5003;71206;48.564;-123.458;2024-01-07T06:26:24;36;29;
29062;PMS5003;71206;48.564;-123.458;2024-01-07T06:28:49;43;36;
29062;PMS5003;71206;48.564;-123.458;2024-01-07T06:31:15;58;55;
29062;PMS5003;71206;48.564;-123.458;2024-01-07T06:33:41;58;53;
29062;PMS5003;71206;48.564;-123.458;2024-01-07T06:36:06;68;51;
29062;PMS5003;71206;48.564;-123.458;2024-01-07T06:38:31;52;47;
29062;PMS5003;71206;48.564;-123.458;2024-01-07T06:40:58;49;41;
29062;PMS5003;71206;48.564;-123.458;2024-01-07T06:43:22;55;47;
29062;PMS5003;71206;48.564;-123.458;2024-01-07T06:45:53;45;41;
29062;PMS5003;71206;48.564;-123.458;2024-01-07T06:48:13;53;43;
29062;PMS5003;71206;48.564;-123.458;2024-01-07T06:50:38;68;59;
29062;PMS5003;71206;48.564;-123.458;2024-01-07T06:53:04;58;51;
29062;PMS5003;71206;48.564;-123.458;2024-01-07T06:55:29;63;55;
29062;PMS5003;71206;48.564;-123.458;2024-01-07T06:57:56;50;46;
29062;PMS5003;71206;48.564;-123.458;2024-01-07T07:00:21;45;43;
29062;PMS5003;71206;48.564;-123.458;2024-01-07T07:02:46;43;39;
29062;PMS5003;71206;48.564;-123.458;2024-01-07T07:05:12;40;33;
29062;PMS5003;71206;48.564;-123.458;2024-01-07T07:07:37;29;29;
29062;PMS5003;71206;48.564;-123.458;2024-01-07T07:10:02;47;40;
29062;PMS5003;71206;48.564;-123.458;2024-01-07T07:12:27;37;32;
29062;PMS5003;71206;48.564;-123.458;2024-01-07T07:14:53;22;21;
29062;PMS5003;71206;48.564;-123.458;2024-01-07T07:17:18;28;25;
29062;PMS5003;71206;48.564;-123.458;2024-01-07T07:19:44;21;21;
29062;PMS5003;71206;48.564;-123.458;2024-01-07T07:22:09;25;21;
29062;PMS5003;71206;48.564;-123.458;2024-01-07T07:24:35;24;22;
29062;PMS5003;71206;48.564;-123.458;2024-01-07T07:27:00;39;35;
29062;PMS5003;71206;48.564;-123.458;2024-01-07T07:29:32;30;27;
29062;PMS5003;71206;48.564;-123.458;2024-01-07T07:31:51;28;27;
29062;PMS5003;71206;48.564;-123.458;2024-01-07T07:34:17;25;24;
29062;PMS5003;71206;48.564;-123.458;2024-01-07T07:36:42;31;27;
29062;PMS5003;71206;48.564;-123.458;2024-01-07T07:39:08;28;21;
29062;PMS5003;71206;48.564;-123.458;2024-01-07T07:41:37;17;17;
29062;PMS5003;71206;48.564;-123.458;2024-01-07T07:43:59;18;17;
29062;PMS5003;71206;48.564;-123.458;2024-01-07T07:46:25;17;16;
29062;PMS5003;71206;48.564;-123.458;2024-01-07T07:48:49;14;14;
29062;PMS5003;71206;48.564;-123.458;2024-01-07T07:51:15;23;16;
29062;PMS5003;71206;48.564;-123.458;2024-01-07T07:53:42;17;15;
29062;PMS5003;71206;48.564;-123.458;2024-01-07T07:56:06;20;19;
29062;PMS5003;71206;48.564;-123.458;2024-01-07T07:58:31;35;30;
29062;PMS5003;71206;48.564;-123.458;2024-01-07T08:00:57;37;35;
29062;PMS5003;71206;48.564;-123.458;2024-01-07T08:03:23;32;24;
29062;PMS5003;71206;48.564;-123.458;2024-01-07T08:05:48;19;17;
29062;PMS5003;71206;48.564;-123.458;2024-01-07T08:08:14;12;12;
29062;PMS5003;71206;48.564;-123.458;2024-01-07T08:10:39;19;17;
29062;PMS5003;71206;48.564;-123.458;2024-01-07T08:13:04;21;20;
29062;PMS5003;71206;48.564;-123.458;2024-01-07T08:15:30;16;14;
29062;PMS5003;71206;48.564;-123.458;2024-01-07T08:17:55;13;13;
29062;PMS5003;71206;48.564;-123.458;2024-01-07T08:20:21;19;14;
29062;PMS5003;71206;48.564;-123.458;2024-01-07T08:22:47;13;12;
29062;PMS5003;71206;48.564;-123.458;2024-01-07T08:25:13;10;10;
29062;PMS5003;71206;48.564;-123.458;2024-01-07T08:27:37;12;12;
29062;PMS5003;71206;48.564;-123.458;2024-01-07T08:30:03;8;8;
29062;PMS5003;71206;48.564;-123.458;2024-01-07T08:32:29;8;8;
29062;PMS5003;71206;48.564;-123.458;2024-01-07T08:34:54;23;19;
29062;PMS5003;71206;48.564;-123.458;2024-01-07T08:37:22;8;6;
29062;PMS5003;71206;48.564;-123.458;2024-01-07T08:39:45;5;5;
29062;PMS5003;71206;48.564;-123.458;2024-01-07T08:42:10;6;6;
29062;PMS5003;71206;48.564;-123.458;2024-01-07T08:44:36;4;4;
29062;PMS5003;71206;48.564;-123.458;2024-01-07T08:47:01;6;6;
29062;PMS5003;71206;48.564;-123.458;2024-01-07T08:49:27;2;2;
29062;PMS5003;71206;48.564;-123.458;2024-01-07T08:51:52;13;13;
29062;PMS5003;71206;48.564;-123.458;2024-01-07T08:54:18;8;6;
29062;PMS5003;71206;48.564;-123.458;2024-01-07T08:56:43;6;6;
29062;PMS5003;71206;48.564;-123.458;2024-01-07T08:59:09;5;4;
29062;PMS5003;71206;48.564;-123.458;2024-01-07T09:01:34;4;4;
29062;PMS5003;71206;48.564;-123.458;2024-01-07T09:04:00;2;2;
29062;PMS5003;71206;48.564;-123.458;2024-01-07T09:06:25;4;2;
29062;PMS5003;71206;48.564;-123.458;2024-01-07T09:08:51;4;4;
29062;PMS5003;71206;48.564;-123.458;2024-01-07T09:11:19;5;4;
29062;PMS5003;71206;48.564;-123.458;2024-01-07T09:13:42;4;2;
29062;PMS5003;71206;48.564;-123.458;2024-01-07T09:16:08;2;2;
29062;PMS5003;71206;48.564;-123.458;2024-01-07T09:18:34;2;2;
29062;PMS5003;71206;48.564;-123.458;2024-01-07T09:20:58;2;2;
29062;PMS5003;71206;48.564;-123.458;2024-01-07T09:23:24;4;4;
29062;PMS5003;71206;48.564;-123.458;2024-01-07T09:25:52;4;4;
29062;PMS5003;71206;48.564;-123.458;2024-01-07T09:28:15;4;4;
29062;PMS5003;71206;48.564;-123.458;2024-01-07T09:30:40;5;4;
29062;PMS5003;71206;48.564;-123.458;2024-01-07T09:33:06;4;4;
29062;PMS5003;71206;48.564;-123.458;2024-01-07T09:35:32;4;2;
29062;PMS5003;71206;48.564;-123.458;2024-01-07T09:37:57;2;2;
29062;PMS5003;71206;48.564;-123.458;2024-01-07T09:40:23;8;5;
29062;PMS5003;71206;48.564;-123.458;2024-01-07T09:42:51;2;2;
29062;PMS5003;71206;48.564;-123.458;2024-01-07T09:45:14;5;5;
29062;PMS5003;71206;48.564;-123.458;2024-01-07T09:47:39;4;4;
29062;PMS5003;71206;48.564;-123.458;2024-01-07T09:50:05;4;4;
29062;PMS5003;71206;48.564;-123.458;2024-01-07T09:52:31;4;4;
29062;PMS5003;71206;48.564;-123.458;2024-01-07T09:54:58;6;4;
29062;PMS5003;71206;48.564;-123.458;2024-01-07T09:57:21;2;2;
29062;PMS5003;71206;48.564;-123.458;2024-01-07T09:59:48;5;5;
29062;PMS5003;71206;48.564;-123.458;2024-01-07T10:02:12;5;5;
29062;PMS5003;71206;48.564;-123.458;2024-01-07T10:04:38;8;6;
29062;PMS5003;71206;48.564;-123.458;2024-01-07T10:07:03;6;5;
29062;PMS5003;71206;48.564;-123.458;2024-01-07T10:09:30;6;5;
29062;PMS5003;71206;48.564;-123.458;2024-01-07T10:11:54;9;6;
29062;PMS5003;71206;48.564;-123.458;2024-01-07T10:14:20;6;4;
29062;PMS5003;71206;48.564;-123.458;2024-01-07T10:16:45;5;5;
29062;PMS5003;71206;48.564;-123.458;2024-01-07T10:19:11;6;5;
29062;PMS5003;71206;48.564;-123.458;2024-01-07T10:21:41;4;4;
29062;PMS5003;71206;48.564;-123.458;2024-01-07T10:24:07;5;5;
29062;PMS5003;71206;48.564;-123.458;2024-01-07T10:26:27;6;4;
29062;PMS5003;71206;48.564;-123.458;2024-01-07T10:28:53;6;6;
29062;PMS5003;71206;48.564;-123.458;2024-01-07T10:31:19;5;4;
29062;PMS5003;71206;48.564;-123.458;2024-01-07T10:33:45;4;4;
29062;PMS5003;71206;48.564;-123.458;2024-01-07T10:36:09;2;2;
29062;PMS5003;71206;48.564;-123.458;2024-01-07T10:38:35;4;4;
29062;PMS5003;71206;48.564;-123.458;2024-01-07T10:41:00;4;4;
29062;PMS5003;71206;48.564;-123.458;2024-01-07T10:43:26;4;2;
29062;PMS5003;71206;48.564;-123.458;2024-01-07T10:45:52;4;4;
29062;PMS5003;71206;48.564;-123.458;2024-01-07T10:48:17;4;4;
29062;PMS5003;71206;48.564;-123.458;2024-01-07T10:50:42;4;4;
29062;PMS5003;71206;48.564;-123.458;2024-01-07T10:53:08;4;4;
29062;PMS5003;71206;48.564;-123.458;2024-01-07T10:55:34;5;4;
29062;PMS5003;71206;48.564;-123.458;2024-01-07T10:57:59;4;4;
29062;PMS5003;71206;48.564;-123.458;2024-01-07T11:00:24;4;4;
29062;PMS5003;71206;48.564;-123.458;2024-01-07T11:02:53;5;2;
29062;PMS5003;71206;48.564;-123.458;2024-01-07T11:05:17;4;4;
29062;PMS5003;71206;48.564;-123.458;2024-01-07T11:07:42;4;2;
29062;PMS5003;71206;48.564;-123.458;2024-01-07T11:10:08;2;2;
29062;PMS5003;71206;48.564;-123.458;2024-01-07T11:12:36;2;2;
29062;PMS5003;71206;48.564;-123.458;2024-01-07T11:14:58;4;2;
29062;PMS5003;71206;48.564;-123.458;2024-01-07T11:19:51;4;4;
29062;PMS5003;71206;48.564;-123.458;2024-01-07T11:22:22;4;2;
29062;PMS5003;71206;48.564;-123.458;2024-01-07T11:24:40;5;2;
29062;PMS5003;71206;48.564;-123.458;2024-01-07T11:27:07;2;2;
29062;PMS5003;71206;48.564;-123.458;2024-01-07T11:29:31;6;4;
29062;PMS5003;71206;48.564;-123.458;2024-01-07T11:31:56;2;2;
29062;PMS5003;71206;48.564;-123.458;2024-01-07T11:36:47;2;2;
29062;PMS5003;71206;48.564;-123.458;2024-01-07T11:39:14;1;1;
29062;PMS5003;71206;48.564;-123.458;2024-01-07T11:41:38;4;4;
29062;PMS5003;71206;48.564;-123.458;2024-01-07T11:44:06;5;5;
29062;PMS5003;71206;48.564;-123.458;2024-01-07T11:46:30;5;4;
29062;PMS5003;71206;48.564;-123.458;2024-01-07T11:48:55;2;2;
29062;PMS5003;71206;48.564;-123.458;2024-01-07T11:51:25;5;2;
29062;PMS5003;71206;48.564;-123.458;2024-01-07T11:53:46;4;2;
29062;PMS5003;71206;48.564;-123.458;2024-01-07T11:56:12;4;2;
29062;PMS5003;71206;48.564;-123.458;2024-01-07T11:58:37;2;2;
29062;PMS5003;71206;48.564;-123.458;2024-01-07T12:01:03;4;4;
29062;PMS5003;71206;48.564;-123.458;2024-01-07T12:03:29;6;5;
29062;PMS5003;71206;48.564;-123.458;2024-01-07T12:05:54;4;4;
29062;PMS5003;71206;48.564;-123.458;2024-01-07T12:08:20;4;4;
29062;PMS5003;71206;48.564;-123.458;2024-01-07T12:10:46;4;4;
29062;PMS5003;71206;48.564;-123.458;2024-01-07T12:13:11;5;4;
29062;PMS5003;71206;48.564;-123.458;2024-01-07T12:15:37;2;2;
29062;PMS5003;71206;48.564;-123.458;2024-01-07T12:18:02;1;1;
29062;PMS5003;71206;48.564;-123.458;2024-01-07T12:20:28;5;5;
29062;PMS5003;71206;48.564;-123.458;2024-01-07T12:22:56;2;1;
29062;PMS5003;71206;48.564;-123.458;2024-01-07T12:25:21;8;4;
29062;PMS5003;71206;48.564;-123.458;2024-01-07T12:27:44;2;2;
29062;PMS5003;71206;48.564;-123.458;2024-01-07T12:30:10;4;4;
29062;PMS5003;71206;48.564;-123.458;2024-01-07T12:32:35;5;5;
29062;PMS5003;71206;48.564;-123.458;2024-01-07T12:35:01;2;2;
29062;PMS5003;71206;48.564;-123.458;2024-01-07T12:37:26;5;5;
29062;PMS5003;71206;48.564;-123.458;2024-01-07T12:39:52;5;5;
29062;PMS5003;71206;48.564;-123.458;2024-01-07T12:42:18;4;4;
29062;PMS5003;71206;48.564;-123.458;2024-01-07T12:44:43;4;2;
29062;PMS5003;71206;48.564;-123.458;2024-01-07T12:47:08;2;2;
29062;PMS5003;71206;48.564;-123.458;2024-01-07T12:49:34;2;1;
29062;PMS5003;71206;48.564;-123.458;2024-01-07T12:51:59;2;2;
29062;PMS5003;71206;48.564;-123.458;2024-01-07T12:54:25;1;1;
29062;PMS5003;71206;48.564;-123.458;2024-01-07T12:56:50;2;2;
29062;PMS5003;71206;48.564;-123.458;2024-01-07T12:59:18;1;1;
29062;PMS5003;71206;48.564;-123.458;2024-01-07T13:01:41;1;1;
29062;PMS5003;71206;48.564;-123.458;2024-01-07T13:04:07;4;1;
29062;PMS5003;71206;48.564;-123.458;2024-01-07T13:06:35;1;0;
29062;PMS5003;71206;48.564;-123.458;2024-01-07T13:08:58;2;2;
29062;PMS5003;71206;48.564;-123.458;2024-01-07T13:11:23;0;0;
29062;PMS5003;71206;48.564;-123.458;2024-01-07T13:13:50;4;2;
29062;PMS5003;71206;48.564;-123.458;2024-01-07T13:16:19;1;1;
29062;PMS5003;71206;48.564;-123.458;2024-01-07T13:18:44;2;1;
29062;PMS5003;71206;48.564;-123.458;2024-01-07T13:21:06;2;2;
29062;PMS5003;71206;48.564;-123.458;2024-01-07T13:23:31;5;4;
29062;PMS5003;71206;48.564;-123.458;2024-01-07T13:25:57;2;2;
29062;PMS5003;71206;48.564;-123.458;2024-01-07T13:28:22;5;4;
29062;PMS5003;71206;48.564;-123.458;2024-01-07T13:30:48;6;5;
29062;PMS5003;71206;48.564;-123.458;2024-01-07T13:33:14;6;5;
29062;PMS5003;71206;48.564;-123.458;2024-01-07T13:35:39;2;2;
29062;PMS5003;71206;48.564;-123.458;2024-01-07T13:38:05;4;4;
29062;PMS5003;71206;48.564;-123.458;2024-01-07T13:40:30;4;4;
29062;PMS5003;71206;48.564;-123.458;2024-01-07T13:42:55;5;4;
29062;PMS5003;71206;48.564;-123.458;2024-01-07T13:45:21;4;4;
29062;PMS5003;71206;48.564;-123.458;2024-01-07T13:47:46;6;5;
29062;PMS5003;71206;48.564;-123.458;2024-01-07T13:50:13;4;4;
29062;PMS5003;71206;48.564;-123.458;2024-01-07T13:52:37;4;4;
29062;PMS5003;71206;48.564;-123.458;2024-01-07T13:55:03;6;4;
29062;PMS5003;71206;48.564;-123.458;2024-01-07T13:57:28;4;4;
29062;PMS5003;71206;48.564;-123.458;2024-01-07T13:59:54;4;4;
29062;PMS5003;71206;48.564;-123.458;2024-01-07T14:02:20;4;4;
29062;PMS5003;71206;48.564;-123.458;2024-01-07T14:04:46;2;2;
29062;PMS5003;71206;48.564;-123.458;2024-01-07T14:07:11;4;4;
29062;PMS5003;71206;48.564;-123.458;2024-01-07T14:09:36;4;2;
29062;PMS5003;71206;48.564;-123.458;2024-01-07T14:12:02;1;1;
29062;PMS5003;71206;48.564;-123.458;2024-01-07T14:14:31;1;1;
29062;PMS5003;71206;48.564;-123.458;2024-01-07T14:16:53;2;2;
29062;PMS5003;71206;48.564;-123.458;2024-01-07T14:19:18;6;6;
29062;PMS5003;71206;48.564;-123.458;2024-01-07T14:21:44;11;11;
29062;PMS5003;71206;48.564;-123.458;2024-01-07T14:24:09;11;9;
29062;PMS5003;71206;48.564;-123.458;2024-01-07T14:26:36;11;8;
29062;PMS5003;71206;48.564;-123.458;2024-01-07T14:29:04;11;11;
29062;PMS5003;71206;48.564;-123.458;2024-01-07T14:31:26;11;8;
29062;PMS5003;71206;48.564;-123.458;2024-01-07T14:33:51;6;6;
29062;PMS5003;71206;48.564;-123.458;2024-01-07T14:36:18;8;5;
29062;PMS5003;71206;48.564;-123.458;2024-01-07T14:38:43;5;5;
29062;PMS5003;71206;48.564;-123.458;2024-01-07T14:41:10;2;2;
29062;PMS5003;71206;48.564;-123.458;2024-01-07T14:43:33;4;4;
29062;PMS5003;71206;48.564;-123.458;2024-01-07T14:45:59;2;2;
29062;PMS5003;71206;48.564;-123.458;2024-01-07T14:48:24;1;1;
29062;PMS5003;71206;48.564;-123.458;2024-01-07T14:50:51;1;1;
29062;PMS5003;71206;48.564;-123.458;2024-01-07T14:53:15;2;2;
29062;PMS5003;71206;48.564;-123.458;2024-01-07T14:55:41;2;2;
29062;PMS5003;71206;48.564;-123.458;2024-01-07T14:58:06;4;2;
29062;PMS5003;71206;48.564;-123.458;2024-01-07T15:00:33;4;1;
29062;PMS5003;71206;48.564;-123.458;2024-01-07T15:03:03;2;1;
29062;PMS5003;71206;48.564;-123.458;2024-01-07T15:05:24;1;1;
29062;PMS5003;71206;48.564;-123.458;2024-01-07T15:07:49;1;1;
29062;PMS5003;71206;48.564;-123.458;2024-01-07T15:10:15;2;1;
29062;PMS5003;71206;48.564;-123.458;2024-01-07T15:12:40;1;1;
29062;PMS5003;71206;48.564;-123.458;2024-01-07T15:15:05;2;2;
29062;PMS5003;71206;48.564;-123.458;2024-01-07T15:17:31;2;2;
29062;PMS5003;71206;48.564;-123.458;2024-01-07T15:19:56;8;5;
29062;PMS5003;71206;48.564;-123.458;2024-01-07T15:22:22;8;5;
29062;PMS5003;71206;48.564;-123.458;2024-01-07T15:24:47;11;9;
29062;PMS5003;71206;48.564;-123.458;2024-01-07T15:27:13;6;5;
29062;PMS5003;71206;48.564;-123.458;2024-01-07T15:29:38;6;4;
29062;PMS5003;71206;48.564;-123.458;2024-01-07T15:32:04;4;4;
29062;PMS5003;71206;48.564;-123.458;2024-01-07T15:34:31;2;2;
29062;PMS5003;71206;48.564;-123.458;2024-01-07T15:36:55;2;2;